createdAt,value
2019-03-20T00:03:51.127Z,4.05
2019-03-20T00:13:56.200Z,5.55
2019-03-20T00:24:01.511Z,7.10
2019-03-20T00:34:07.016Z,8.10
2019-03-20T00:44:12.415Z,5.78
2019-03-20T00:54:17.796Z,9.08
2019-03-20T01:04:23.016Z,3.83
2019-03-20T01:14:28.386Z,7.65
2019-03-20T01:24:33.446Z,7.33
2019-03-20T01:34:38.504Z,8.48
2019-03-20T01:44:43.940Z,9.05
2019-03-20T01:54:49.010Z,5.00
2019-03-20T02:04:54.067Z,6.42
2019-03-20T02:14:59.230Z,9.78
2019-03-20T02:25:04.758Z,8.30
2019-03-20T02:35:10.270Z,9.00
2019-03-20T02:45:15.625Z,13.00
2019-03-20T02:55:20.933Z,8.28
2019-03-20T03:05:25.977Z,3.83
2019-03-20T03:15:31.042Z,7.00
2019-03-20T03:25:36.210Z,6.78
2019-03-20T03:35:41.326Z,4.53
2019-03-20T03:45:46.493Z,3.77
2019-03-20T03:55:51.569Z,4.80
2019-03-20T04:05:57.238Z,4.25
2019-03-20T04:16:02.528Z,5.65
2019-03-20T04:26:07.711Z,6.20
2019-03-20T04:36:12.775Z,11.45
2019-03-20T04:46:18.203Z,5.78
2019-03-20T04:56:23.656Z,6.72
2019-03-20T05:06:28.723Z,6.03
2019-03-20T05:16:34.147Z,6.15
2019-03-20T05:26:39.238Z,5.15
2019-03-20T05:36:44.604Z,8.03
2019-03-20T05:46:50.446Z,7.42
2019-03-20T05:56:55.549Z,8.25
2019-03-20T06:07:00.967Z,12.88
2019-03-20T06:17:06.070Z,7.28
2019-03-20T06:27:11.595Z,11.28
2019-03-20T06:37:16.751Z,6.15
2019-03-20T06:47:22.539Z,9.28
2019-03-20T06:57:31.571Z,5.87
2019-03-20T07:07:44.354Z,7.55
2019-03-20T07:17:49.366Z,4.78
2019-03-20T07:27:54.657Z,16.90
2019-03-20T07:37:59.935Z,7.97
2019-03-20T07:48:04.995Z,11.60
2019-03-20T07:58:10.311Z,7.70
2019-03-20T08:08:15.355Z,5.50
2019-03-20T08:18:20.409Z,6.97
2019-03-20T08:28:25.468Z,7.47
2019-03-20T08:38:30.528Z,6.58
2019-03-20T08:48:35.607Z,7.47
2019-03-20T08:58:40.909Z,11.22
2019-03-20T09:08:45.971Z,10.40
2019-03-20T09:18:51.052Z,8.70
2019-03-20T09:28:56.187Z,13.40
2019-03-20T09:39:01.267Z,15.72
2019-03-20T09:49:06.563Z,5.47
2019-03-20T09:59:11.649Z,6.65
2019-03-20T10:09:16.799Z,10.58
2019-03-20T10:19:22.952Z,5.20
2019-03-20T10:29:29.096Z,5.60
2019-03-20T10:39:34.220Z,7.67
2019-03-20T10:49:39.313Z,14.43
2019-03-20T10:59:44.383Z,8.23
2019-03-20T11:09:49.663Z,8.00
2019-03-20T11:19:56.327Z,10.03
2019-03-20T11:30:01.621Z,10.35
2019-03-20T11:40:10.692Z,8.15
2019-03-20T11:50:18.344Z,4.10
2019-03-20T12:00:23.556Z,6.72
2019-03-20T12:10:28.851Z,9.15
2019-03-20T12:20:34.239Z,8.75
2019-03-20T12:30:39.705Z,11.48
2019-03-20T12:40:44.833Z,8.88
2019-03-20T12:50:50.036Z,7.60
2019-03-20T13:00:55.164Z,9.68
2019-03-20T13:11:00.254Z,6.15
2019-03-20T13:21:05.363Z,9.98
2019-03-20T13:31:13.875Z,11.18
2019-03-20T13:41:19.137Z,8.45
2019-03-20T13:51:24.290Z,8.75
2019-03-20T14:01:29.361Z,9.98
2019-03-20T14:11:34.771Z,9.53
2019-03-20T14:21:39.870Z,11.83
2019-03-20T14:31:45.980Z,11.48
2019-03-20T14:41:53.431Z,12.43
2019-03-20T14:51:58.602Z,9.73
2019-03-20T15:02:03.695Z,13.20
2019-03-20T15:12:08.794Z,14.98
2019-03-20T15:22:17.053Z,15.70
2019-03-20T15:32:22.558Z,12.60
2019-03-20T15:42:27.770Z,13.93
2019-03-20T15:52:32.919Z,12.63
2019-03-20T16:02:38.315Z,15.85
2019-03-20T16:12:43.391Z,12.58
2019-03-20T16:22:49.515Z,17.07
2019-03-20T16:32:56.526Z,14.63
2019-03-20T16:43:01.926Z,15.50
2019-03-20T16:53:07.133Z,13.55
2019-03-20T17:03:12.229Z,13.72
2019-03-20T17:13:17.310Z,12.68
2019-03-20T17:23:22.406Z,16.32
2019-03-20T17:33:28.142Z,12.35
2019-03-20T17:43:33.282Z,16.62
2019-03-20T17:53:38.391Z,18.90
2019-03-20T18:03:43.568Z,22.35
2019-03-20T18:13:48.646Z,20.60
2019-03-20T18:23:54.091Z,22.35
2019-03-20T18:33:59.697Z,23.15
2019-03-20T18:44:04.879Z,23.70
2019-03-20T18:54:10.302Z,29.25
2019-03-20T19:04:15.488Z,27.17
2019-03-20T19:14:20.659Z,24.47
2019-03-20T19:24:25.883Z,24.50
2019-03-20T19:34:31.284Z,27.25
2019-03-20T19:44:36.672Z,33.95
2019-03-20T19:54:42.058Z,54.85
2019-03-20T20:04:47.131Z,86.92
2019-03-20T20:14:52.441Z,37.95
2019-03-20T20:24:57.550Z,35.95
2019-03-20T20:35:02.647Z,31.70
2019-03-20T20:45:08.692Z,25.37
2019-03-20T20:55:14.001Z,31.25
2019-03-20T21:05:19.083Z,26.60
2019-03-20T21:15:41.577Z,29.87
2019-03-20T21:25:47.666Z,26.93
2019-03-20T21:36:29.078Z,29.65
2019-03-20T21:47:25.115Z,29.65
2019-03-20T21:58:10.454Z,26.87
2019-03-20T22:08:16.071Z,28.70
2019-03-20T22:19:10.201Z,27.90
2019-03-20T22:29:25.871Z,25.20
2019-03-20T22:40:09.011Z,24.45
2019-03-20T22:50:57.643Z,23.62
2019-03-20T23:01:03.292Z,26.25
2019-03-20T23:11:09.122Z,26.95
2019-03-20T23:21:14.815Z,25.43
2019-03-20T23:31:20.410Z,26.33
2019-03-20T23:41:26.251Z,26.27
2019-03-20T23:51:31.897Z,17.17
